EGTE/EXT METAR and TAF weather

Enter ICAO airport designator
Station Type Date Time Source
EGTE METAR 2020/11/27 02:50 UTC NOAA

EGTE 270250Z 03004KT 0400 R26/0300 FZFG VV/// M01/M01 Q1020


Station Type Date Time Source
EGTE Decoded METAR 2020/11/27 02:50 UTC NOAA

Exeter Airport, United Kingdom (EGTE) 50-44N 003-25W
Nov 26, 2020 - 09:50 PM EST / 2020.11.27 0250 UTC
Wind: from the NNE (030 degrees) at 5 MPH (4 KT):0
Visibility: less than 1 mile:0
Sky conditions: obscured
Weather: freezing fog
Temperature: 30 F (-1 C)
Windchill: 24 F (-4 C):1
Dew Point: 30 F (-1 C)
Relative Humidity: 100%
Pressure (altimeter): 30.12 in. Hg (1020 hPa)
ob: EGTE 270250Z 03004KT 0400 R26/0300 FZFG VV/// M01/M01 Q1020
cycle: 3

Station Type Date Time Source
EGTE TAF 2012/04/19 12:15 UTC NOAA

TAF TAF EGTE 191401Z 1912/1924 31016KT 9999 SCT030 SCT035 PROB40
TEMPO 1915/1918 7000 SHRA BKN014

Example: see airport list